Time;durP1;ratioP1;P1;durP2;ratioP2;P2;SDS_P1;SDS_P2;PMS_P1;PMS_P2;Temp;Humidity;BMP_temperature;BMP_pressure;BME280_temperature;BME280_humidity;BME280_pressure;Samples;Min_cycle;Max_cycle;Signal;HPM_P1;HPM_P2
2022/08/05 00:02:19;;;;;;;1999.90;999.90;;;;;;;25.21;51.89;98838.78;10045016;23;20023;-76
2022/08/05 00:06:21;;;;;;;1999.90;999.90;;;;;;;25.12;52.72;98842.09;10027422;23;20148;-76
2022/08/05 00:10:32;;;;;;;1999.90;999.90;;;;;;;25.04;53.26;98836.50;10004506;23;20030;-76
2022/08/05 00:14:35;;;;;;;1999.90;999.90;;;;;;;24.94;51.92;98862.84;10043709;23;20359;-76
2022/08/05 00:18:40;;;;;;;1999.90;999.90;;;;;;;24.89;52.42;98855.19;10022841;23;20552;-76
2022/08/05 00:22:43;;;;;;;1999.90;999.90;;;;;;;24.75;52.78;98899.63;10049799;23;20026;-76
2022/08/05 00:26:59;;;;;;;1999.90;999.90;;;;;;;24.64;53.31;98934.91;10026119;23;20019;-76
2022/08/05 00:31:01;;;;;;;1999.90;999.90;;;;;;;24.46;53.57;98954.75;10026161;23;20022;-76
2022/08/05 00:35:05;;;;;;;1999.90;999.90;;;;;;;24.28;53.47;98976.25;10027265;23;20065;-75
2022/08/05 00:39:08;;;;;;;1999.90;999.90;;;;;;;24.24;53.51;98969.44;10026238;23;20023;-75
2022/08/05 00:43:14;;;;;;;1999.90;999.90;;;;;;;24.25;54.00;98963.19;10028369;23;20022;-75
2022/08/05 00:47:17;;;;;;;1999.90;999.90;;;;;;;24.16;54.97;98949.69;10021549;23;20513;-75
2022/08/05 00:51:20;;;;;;;1999.90;999.90;;;;;;;24.14;58.43;98963.03;10026195;23;20031;-75
2022/08/05 00:55:42;;;;;;;1999.90;999.90;;;;;;;23.90;59.91;99023.03;10026252;23;20032;-75
2022/08/05 00:59:44;;;;;;;1999.90;999.90;;;;;;;23.61;59.90;99048.75;10025170;23;20509;-76
2022/08/05 01:03:45;;;;;;;1999.90;999.90;;;;;;;23.39;62.36;99041.25;10020685;23;20758;-76
2022/08/05 01:07:51;;;;;;;1999.90;999.90;;;;;;;23.21;64.92;99022.06;10025930;23;20127;-75
2022/08/05 01:12:18;;;;;;;1999.90;999.90;;;;;;;23.01;66.92;98980.06;10026399;23;20102;-75
2022/08/05 01:16:25;;;;;;;1999.90;999.90;;;;;;;22.96;69.37;98947.69;10045062;23;20330;-75
2022/08/05 01:20:44;;;;;;;1999.90;999.90;;;;;;;22.88;70.21;98942.91;10026342;23;20030;-75
2022/08/05 01:24:49;;;;;;;1999.90;999.90;;;;;;;22.69;71.21;98947.59;10024544;23;20027;-75
2022/08/05 01:29:07;;;;;;;1999.90;999.90;;;;;;;22.57;72.88;98890.94;10026764;23;20030;-76
2022/08/05 01:33:11;;;;;;;1999.90;999.90;;;;;;;22.55;74.16;98871.69;10026748;23;20023;-76
2022/08/05 01:37:38;;;;;;;1999.90;999.90;;;;;;;22.52;74.10;98861.28;9999442;23;20488;-76
2022/08/05 01:41:46;;;;;;;1999.90;999.90;;;;;;;22.28;74.30;98864.50;10001966;23;20466;-77
2022/08/05 01:45:49;;;;;;;1999.90;999.90;;;;;;;21.99;75.84;98865.34;10021500;23;20031;-77
2022/08/05 01:49:59;;;;;;;1999.90;999.90;;;;;;;21.83;76.76;98878.59;10024817;23;20033;-77
2022/08/05 01:54:07;;;;;;;1999.90;999.90;;;;;;;21.67;77.79;98902.44;10024050;23;20054;-77
2022/08/05 01:58:12;;;;;;;1999.90;999.90;;;;;;;21.44;78.86;98939.88;10000410;23;20023;-77
2022/08/05 02:02:37;;;;;;;1999.90;999.90;;;;;;;21.38;79.70;99019.47;10024448;23;20035;-77
2022/08/05 02:06:47;;;;;;;1999.90;999.90;;;;;;;21.37;79.63;99091.72;10031489;23;20090;-76
2022/08/05 02:10:52;;;;;;;1999.90;999.90;;;;;;;21.39;80.02;99153.25;10034408;23;20022;-76
2022/08/05 02:15:05;;;;;;;1999.90;999.90;;;;;;;21.45;79.65;99141.50;10011291;23;20054;-76
2022/08/05 02:19:31;;;;;;;1999.90;999.90;;;;;;;21.52;79.23;99111.16;10007798;23;20023;-76
2022/08/05 02:23:39;;;;;;;1999.90;999.90;;;;;;;21.63;78.23;99066.53;10010917;23;20022;-76
2022/08/05 02:27:41;;;;;;;1999.90;999.90;;;;;;;21.69;77.87;99042.41;10033977;23;20046;-76
2022/08/05 02:32:02;;;;;;;1999.90;999.90;;;;;;;21.74;77.96;99052.75;10035082;23;20023;-76
2022/08/05 02:36:09;;;;;;;1999.90;999.90;;;;;;;21.75;78.37;99070.31;10031999;23;20054;-76
2022/08/05 02:40:17;;;;;;;1999.90;999.90;;;;;;;21.60;78.52;99072.84;10035533;23;20331;-76
2022/08/05 02:44:21;;;;;;;1999.90;999.90;;;;;;;21.52;78.50;99100.59;10026084;23;20034;-76
2022/08/05 02:48:24;;;;;;;1999.90;999.90;;;;;;;21.44;78.97;99108.94;10004250;23;20058;-76
2022/08/05 02:52:31;;;;;;;1999.90;999.90;;;;;;;21.43;79.34;99107.25;10035356;23;20033;-76
2022/08/05 02:56:35;;;;;;;1999.90;999.90;;;;;;;21.36;79.56;99122.56;9985470;23;20347;-76
2022/08/05 03:00:44;;;;;;;1999.90;999.90;;;;;;;21.38;80.07;99138.34;10030696;23;20041;-76
2022/08/05 03:04:48;;;;;;;1999.90;999.90;;;;;;;21.34;80.46;99140.28;10006282;23;20741;-76
2022/08/05 03:08:54;;;;;;;1999.90;999.90;;;;;;;21.23;81.34;99137.31;10045273;23;20029;-75
2022/08/05 03:12:57;;;;;;;1999.90;999.90;;;;;;;21.21;81.73;99157.69;10028720;23;20031;-76
2022/08/05 03:17:01;;;;;;;1999.90;999.90;;;;;;;21.21;81.89;99147.13;10033236;23;20023;-76
2022/08/05 03:21:10;;;;;;;1999.90;999.90;;;;;;;21.26;82.47;99136.34;9980220;23;20715;-75
2022/08/05 03:25:12;;;;;;;1999.90;999.90;;;;;;;21.20;82.44;99120.78;10003168;23;20058;-75
2022/08/05 03:29:34;;;;;;;;;;;;;;;21.15;82.13;99130.72;10028811;23;20062;-76
2022/08/05 03:33:56;;;;;;;1999.90;999.90;;;;;;;21.12;82.38;99152.84;10002422;23;20008;-76
2022/08/05 03:38:01;;;;;;;1999.90;999.90;;;;;;;21.07;82.57;99161.00;10028576;23;20109;-75
2022/08/05 03:42:03;;;;;;;1999.90;999.90;;;;;;;21.04;82.88;99170.88;10017990;23;20050;-76
2022/08/05 03:46:04;;;;;;;;;;;;;;;21.08;82.24;99161.88;9999623;23;20517;-75
2022/08/05 03:50:08;;;;;;;1999.90;999.90;;;;;;;21.06;82.55;99156.66;10028172;23;19929;-76
2022/08/05 03:54:33;;;;;;;1999.90;999.90;;;;;;;21.13;82.58;99146.63;10029354;23;20441;-75
2022/08/05 03:58:58;;;;;;;1999.90;999.90;;;;;;;21.17;82.69;99150.81;10002147;23;20429;-76
2022/08/05 04:03:03;;;;;;;1999.90;999.90;;;;;;;21.18;82.81;99172.78;10023488;23;20035;-75
2022/08/05 04:07:05;;;;;;;1999.90;999.90;;;;;;;21.11;83.13;99188.97;10025529;23;20027;-76
2022/08/05 04:11:07;;;;;;;1999.90;999.90;;;;;;;21.11;84.14;99185.47;10028601;23;20323;-76
2022/08/05 04:15:10;;;;;;;1999.90;999.90;;;;;;;21.20;83.67;99192.09;10025661;23;20097;-75
2022/08/05 04:19:17;;;;;;;1999.90;999.90;;;;;;;21.14;84.28;99206.44;10026105;23;20023;-76
2022/08/05 04:23:25;;;;;;;1999.90;999.90;;;;;;;21.15;84.85;99180.88;10002266;23;20023;-75
2022/08/05 04:27:46;;;;;;;1999.90;999.90;;;;;;;21.23;84.30;99205.13;10002012;23;20031;-75
2022/08/05 04:31:59;;;;;;;1999.90;999.90;;;;;;;21.28;84.62;99195.22;10032929;23;20030;-75
2022/08/05 04:36:00;;;;;;;1999.90;999.90;;;;;;;21.30;84.84;99190.69;10027560;23;20712;-75
2022/08/05 04:40:21;;;;;;;1999.90;999.90;;;;;;;21.38;84.71;99164.75;10002572;23;20058;-76
2022/08/05 04:44:23;;;;;;;1999.90;999.90;;;;;;;21.44;85.05;99147.72;10027871;23;20051;-76
2022/08/05 04:48:30;;;;;;;1999.90;999.90;;;;;;;21.47;84.42;99137.00;10020986;23;20037;-75
2022/08/05 04:52:32;;;;;;;;;;;;;;;21.47;83.36;99129.06;10028736;23;20018;-75
2022/08/05 04:56:34;;;;;;;1999.90;999.90;;;;;;;21.42;82.49;99127.53;10028181;23;19921;-76
2022/08/05 05:00:38;;;;;;;1999.90;999.90;;;;;;;21.42;82.48;99109.03;10022762;23;20325;-75
2022/08/05 05:04:39;;;;;;;1999.90;999.90;;;;;;;21.41;83.32;99117.91;10026341;23;20018;-76
2022/08/05 05:08:50;;;;;;;1999.90;999.90;;;;;;;21.41;84.23;99099.41;10027126;23;20085;-76
2022/08/05 05:12:53;;;;;;;1999.90;999.90;;;;;;;21.30;85.28;99120.25;10027664;23;20098;-76
2022/08/05 05:16:55;;;;;;;1999.90;999.90;;;;;;;21.16;85.79;99111.28;9997000;23;20034;-76
2022/08/05 05:20:58;;;;;;;1999.90;999.90;;;;;;;21.13;87.21;99114.94;10026383;23;20027;-76
2022/08/05 05:25:00;;;;;;;1999.90;999.90;;;;;;;21.04;87.32;99142.69;10001361;23;20022;-77
2022/08/05 05:29:17;;;;;;;1999.90;999.90;;;;;;;21.07;88.00;99121.41;10000313;23;20034;-76
2022/08/05 05:33:19;;;;;;;1999.90;999.90;;;;;;;21.07;88.41;99141.69;9995721;23;20034;-76
2022/08/05 05:37:23;;;;;;;1999.90;999.90;;;;;;;21.08;88.35;99173.28;10040655;23;20042;-76
2022/08/05 05:41:45;;;;;;;1999.90;999.90;;;;;;;21.04;88.52;99173.53;10000675;23;20062;-76
2022/08/05 05:45:55;;;;;;;1999.90;999.90;;;;;;;21.01;88.13;99169.25;10000057;23;20030;-76
2022/08/05 05:49:57;;;;;;;1999.90;999.90;;;;;;;21.07;87.78;99168.09;10000107;23;20373;-76
2022/08/05 05:54:02;;;;;;;1999.90;999.90;;;;;;;21.07;87.10;99182.13;10041085;23;20038;-76
2022/08/05 05:58:04;;;;;;;1999.90;999.90;;;;;;;21.05;87.78;99184.00;10026034;23;20019;-76
2022/08/05 06:02:05;;;;;;;1999.90;999.90;;;;;;;21.07;88.18;99200.63;9999492;23;20027;-76
2022/08/05 06:06:08;;;;;;;1999.90;999.90;;;;;;;21.11;88.39;99188.09;10042580;23;20062;-76
2022/08/05 06:10:09;;;;;;;1999.90;999.90;;;;;;;21.13;88.39;99152.78;10002239;23;20026;-75
2022/08/05 06:14:11;;;;;;;1999.90;999.90;;;;;;;21.22;88.50;99166.44;10027350;23;20069;-76
2022/08/05 06:18:13;;;;;;;1999.90;999.90;;;;;;;21.19;88.30;99206.22;10028961;23;20077;-76
2022/08/05 06:22:22;;;;;;;1999.90;999.90;;;;;;;21.22;88.10;99220.13;10044857;23;20051;-76
2022/08/05 06:26:24;;;;;;;1999.90;999.90;;;;;;;21.21;88.68;99233.41;10004990;23;20323;-76
2022/08/05 06:30:32;;;;;;;1999.90;999.90;;;;;;;21.18;89.33;99252.88;10024799;23;20066;-77
2022/08/05 06:34:34;;;;;;;1999.90;999.90;;;;;;;21.16;89.01;99245.97;10003205;23;20082;-76
2022/08/05 06:38:35;;;;;;;1999.90;999.90;;;;;;;21.17;89.09;99243.25;10002628;23;20110;-76
2022/08/05 06:42:37;;;;;;;;;;;;;;;21.17;88.14;99223.91;10002700;23;20490;-76
2022/08/05 06:46:40;;;;;;;1999.90;999.90;;;;;;;21.21;88.08;99197.28;10025993;23;19977;-76
2022/08/05 06:50:42;;;;;;;1999.90;999.90;;;;;;;21.21;87.81;99210.50;10026718;23;20065;-76
2022/08/05 06:54:50;;;;;;;1999.90;999.90;;;;;;;21.24;87.77;99217.41;10000758;23;20069;-76
2022/08/05 06:58:54;;;;;;;1999.90;999.90;;;;;;;21.26;87.91;99218.22;10029267;23;20019;-76
2022/08/05 07:02:56;;;;;;;1999.90;999.90;;;;;;;21.38;87.95;99201.75;9999325;23;20031;-76
2022/08/05 07:06:57;;;;;;;1999.90;999.90;;;;;;;21.41;88.00;99204.22;10019261;23;20106;-76
2022/08/05 07:10:59;;;;;;;1999.90;999.90;;;;;;;21.47;87.01;99197.75;10027648;23;20359;-76
2022/08/05 07:19:42;;;;;;;1999.90;999.90;;;;;;;21.78;88.07;99166.13;10027783;23;20057;-75
2022/08/05 07:24:05;;;;;;;1999.90;999.90;;;;;;;21.86;86.92;99177.13;10007150;23;20110;-76
2022/08/05 07:28:11;;;;;;;1999.90;999.90;;;;;;;21.98;86.80;99199.44;10027248;23;20025;-76
2022/08/05 07:32:17;;;;;;;1999.90;999.90;;;;;;;22.13;85.95;99216.28;9999673;23;20031;-76
2022/08/05 07:36:26;;;;;;;1999.90;999.90;;;;;;;22.31;84.46;99210.84;10027418;23;20034;-76
2022/08/05 07:40:28;;;;;;;1999.90;999.90;;;;;;;22.47;83.21;99210.00;10002363;23;20019;-76
2022/08/05 07:44:35;;;;;;;1999.90;999.90;;;;;;;22.53;82.59;99205.19;10043294;23;20046;-76
2022/08/05 07:48:37;;;;;;;1999.90;999.90;;;;;;;22.50;81.59;99212.47;9977893;23;20097;-76
2022/08/05 07:52:58;;;;;;;;;;;;;;;22.41;83.61;99219.09;9980995;23;20053;-76
2022/08/05 07:57:04;;;;;;;1999.90;999.90;;;;;;;22.36;84.03;99228.25;9988813;23;20460;-76
2022/08/05 08:01:26;;;;;;;1999.90;999.90;;;;;;;22.49;84.41;99224.00;10020847;23;20098;-75
2022/08/05 08:05:30;;;;;;;1999.90;999.90;;;;;;;22.71;84.22;99213.91;10000533;23;20118;-75
2022/08/05 08:09:39;;;;;;;1999.90;999.90;;;;;;;22.88;81.10;99220.91;10026208;23;20018;-76
2022/08/05 08:13:41;;;;;;;1999.90;999.90;;;;;;;22.95;78.62;99246.09;10000511;23;20057;-76
2022/08/05 08:18:02;;;;;;;1999.90;999.90;;;;;;;23.23;79.50;99233.91;10025088;23;20038;-76
2022/08/05 08:22:08;;;;;;;1999.90;999.90;;;;;;;23.48;78.31;99248.25;10001965;23;20027;-75
2022/08/05 08:26:16;;;;;;;1999.90;999.90;;;;;;;23.72;77.07;99271.63;10031237;23;20111;-77
2022/08/05 08:30:27;;;;;;;1999.90;999.90;;;;;;;23.74;74.57;99277.69;10028024;23;20078;-77
2022/08/05 08:34:48;;;;;;;1999.90;999.90;;;;;;;23.90;73.00;99281.13;10027009;23;20034;-77
2022/08/05 08:38:53;;;;;;;1999.90;999.90;;;;;;;23.88;71.62;99272.41;10031884;23;20031;-77
2022/08/05 08:42:55;;;;;;;1999.90;999.90;;;;;;;24.06;72.70;99266.00;10007339;23;20055;-77
2022/08/05 08:47:22;;;;;;;1999.90;999.90;;;;;;;24.35;71.81;99276.59;10005518;23;20776;-77
2022/08/05 08:51:47;;;;;;;1999.90;999.90;;;;;;;24.32;71.01;99280.31;9987554;23;20030;-77
2022/08/05 08:56:06;;;;;;;1999.90;999.90;;;;;;;24.47;69.09;99275.84;10008689;23;20023;-76
2022/08/05 09:00:09;;;;;;;1999.90;999.90;;;;;;;24.54;69.79;99290.44;10005898;23;20101;-77
2022/08/05 09:04:16;;;;;;;1999.90;999.90;;;;;;;24.46;67.34;99302.50;10029870;23;20042;-77
2022/08/05 09:08:18;;;;;;;1999.90;999.90;;;;;;;24.24;68.12;99327.69;10029063;23;20022;-75
2022/08/05 09:12:27;;;;;;;1999.90;999.90;;;;;;;23.85;68.46;99311.50;10025078;23;20042;-72
2022/08/05 09:16:30;;;;;;;1999.90;999.90;;;;;;;23.65;69.19;99296.78;9994091;23;20031;-75
2022/08/05 09:20:31;;;;;;;1999.90;999.90;;;;;;;23.44;70.86;99315.63;10023712;23;20019;-75
2022/08/05 09:24:38;;;;;;;1999.90;999.90;;;;;;;23.10;74.95;99314.06;10024789;23;20026;-74
2022/08/05 09:28:40;;;;;;;1999.90;999.90;;;;;;;22.90;76.89;99325.81;10024423;23;20018;-75
2022/08/05 09:32:41;;;;;;;1999.90;999.90;;;;;;;22.78;77.89;99315.84;10020019;23;20383;-75
2022/08/05 09:36:49;;;;;;;1999.90;999.90;;;;;;;22.95;79.62;99298.19;10015006;23;20406;-75
2022/08/05 09:41:06;;;;;;;1999.90;999.90;;;;;;;23.27;78.64;99296.38;10001668;23;20026;-75
2022/08/05 09:45:09;;;;;;;1999.90;999.90;;;;;;;23.38;76.87;99293.97;10018854;23;20030;-75
2022/08/05 09:49:30;;;;;;;1999.90;999.90;;;;;;;23.66;77.20;99298.50;10002936;23;20041;-75
2022/08/05 09:53:52;;;;;;;1999.90;999.90;;;;;;;23.80;76.89;99296.75;10002597;23;20110;-75
2022/08/05 09:58:12;;;;;;;1999.90;999.90;;;;;;;23.90;76.49;99298.84;10001459;23;20022;-74
2022/08/05 10:02:29;;;;;;;1999.90;999.90;;;;;;;24.03;76.68;99281.22;9995759;23;20446;-75
2022/08/05 10:06:32;;;;;;;1999.90;999.90;;;;;;;24.24;75.24;99301.16;9999984;23;20106;-75
2022/08/05 10:10:46;;;;;;;1999.90;999.90;;;;;;;24.36;72.92;99305.72;10024666;23;20076;-75
2022/08/05 10:14:50;;;;;;;1999.90;999.90;;;;;;;24.47;71.49;99323.63;10025373;23;20366;-75
2022/08/05 10:18:55;;;;;;;1999.90;999.90;;;;;;;24.48;69.82;99308.56;10000127;23;20431;-75
2022/08/05 10:22:58;;;;;;;1999.90;999.90;;;;;;;24.47;68.98;99326.28;10024452;23;20419;-75
2022/08/05 10:27:00;;;;;;;1999.90;999.90;;;;;;;24.64;69.47;99330.53;10040663;23;20591;-75
2022/08/05 10:31:01;;;;;;;1999.90;999.90;;;;;;;24.79;68.20;99342.84;9994579;23;20114;-75
2022/08/05 10:35:23;;;;;;;1999.90;999.90;;;;;;;24.85;66.94;99341.59;10026101;23;20445;-75
2022/08/05 10:39:45;;;;;;;1999.90;999.90;;;;;;;24.57;66.06;99345.13;10027932;23;20023;-75
2022/08/05 10:44:08;;;;;;;1999.90;999.90;;;;;;;24.40;66.85;99354.13;10006235;23;20026;-75
2022/08/05 10:48:30;;;;;;;1999.90;999.90;;;;;;;24.26;67.43;99354.13;9997701;23;20587;-75
2022/08/05 10:52:55;;;;;;;1999.90;999.90;;;;;;;24.24;68.26;99351.56;10027630;23;20089;-74
2022/08/05 10:56:59;;;;;;;1999.90;999.90;;;;;;;24.23;67.41;99349.84;10026379;23;20026;-75
2022/08/05 11:01:05;;;;;;;;;;;;;;;24.37;67.41;99352.53;9998259;23;20649;-76
2022/08/05 11:05:09;;;;;;;1999.90;999.90;;;;;;;24.43;66.67;99356.63;10027650;23;19922;-75
2022/08/05 11:09:20;;;;;;;1999.90;999.90;;;;;;;24.45;66.93;99368.00;10025044;23;20403;-74
2022/08/05 11:13:42;;;;;;;1999.90;999.90;;;;;;;24.50;66.72;99370.38;10006316;23;20027;-75
2022/08/05 11:18:23;;;;;;;1999.90;999.90;;;;;;;24.54;66.11;99370.06;10023067;23;20027;-75
2022/08/05 11:22:38;;;;;;;1999.90;999.90;;;;;;;24.69;65.84;99381.56;10025851;23;20033;-75
2022/08/05 11:26:42;;;;;;;1999.90;999.90;;;;;;;24.68;64.58;99385.16;10000760;23;20297;-75
2022/08/05 11:30:55;;;;;;;1999.90;999.90;;;;;;;24.69;64.79;99393.03;9992400;23;20030;-75
2022/08/05 11:34:59;;;;;;;1999.90;999.90;;;;;;;24.56;65.62;99407.16;10024560;23;20023;-76
2022/08/05 11:39:00;;;;;;;;;;;;;;;24.48;66.04;99409.44;10000799;23;20736;-75
2022/08/05 11:43:02;;;;;;;1999.90;999.90;;;;;;;24.60;65.84;99416.66;9999248;23;19945;-75
2022/08/05 11:47:06;;;;;;;1999.90;999.90;;;;;;;24.75;64.49;99417.47;9994394;23;20117;-76
2022/08/05 11:51:13;;;;;;;1999.90;999.90;;;;;;;24.84;63.14;99414.28;10025161;23;20023;-76
2022/08/05 11:55:35;;;;;;;1999.90;999.90;;;;;;;24.85;62.88;99421.28;9996563;23;20406;-74
2022/08/05 11:59:37;;;;;;;1999.90;999.90;;;;;;;24.96;62.11;99425.00;10039099;23;20372;-75
2022/08/05 12:03:54;;;;;;;1999.90;999.90;;;;;;;25.24;62.46;99424.09;10020260;23;20031;-75
2022/08/05 12:07:57;;;;;;;1999.90;999.90;;;;;;;25.54;62.00;99418.63;9998091;23;20426;-76
2022/08/05 12:12:11;;;;;;;1999.90;999.90;;;;;;;25.70;59.89;99402.53;10025325;23;20023;-75
2022/08/05 12:16:18;;;;;;;1999.90;999.90;;;;;;;25.84;60.29;99385.63;9993454;23;20031;-76
2022/08/05 12:20:29;;;;;;;1999.90;999.90;;;;;;;25.98;60.00;99390.88;10025440;23;20018;-76
2022/08/05 12:24:39;;;;;;;1999.90;999.90;;;;;;;26.25;58.98;99405.94;10025946;23;20462;-76
2022/08/05 12:28:44;;;;;;;1999.90;999.90;;;;;;;26.31;57.70;99410.84;9996205;23;20094;-76
2022/08/05 12:32:52;;;;;;;1999.90;999.90;;;;;;;26.26;55.91;99392.53;10021934;23;20041;-76
2022/08/05 12:36:59;;;;;;;1999.90;999.90;;;;;;;26.17;56.10;99398.47;10024455;23;20355;-75
2022/08/05 12:41:10;;;;;;;1999.90;999.90;;;;;;;26.40;56.76;99389.78;10026064;23;20033;-76
2022/08/05 12:45:14;;;;;;;1999.90;999.90;;;;;;;26.57;54.40;99396.63;10021960;23;20022;-75
2022/08/05 12:49:16;;;;;;;1999.90;999.90;;;;;;;26.91;53.76;99395.03;9996487;23;20118;-75
2022/08/05 12:53:19;;;;;;;1999.90;999.90;;;;;;;27.09;52.59;99396.41;10039774;23;20052;-75
2022/08/05 12:57:37;;;;;;;1999.90;999.90;;;;;;;27.09;52.59;99407.06;9997497;23;20330;-75
2022/08/05 13:02:01;;;;;;;;;;;;;;;27.02;52.31;99395.16;10020031;23;20093;-76
2022/08/05 13:06:15;;;;;;;1999.90;999.90;;;;;;;26.79;52.43;99401.28;10022959;23;20376;-75
2022/08/05 13:10:17;;;;;;;1999.90;999.90;;;;;;;26.60;52.65;99409.72;10024214;23;20629;-75
2022/08/05 13:14:23;;;;;;;1999.90;999.90;;;;;;;26.70;52.71;99405.41;9999804;23;20576;-76
2022/08/05 13:18:38;;;;;;;1999.90;999.90;;;;;;;27.01;51.60;99403.28;10022592;23;20398;-76
2022/08/05 13:22:48;;;;;;;1999.90;999.90;;;;;;;27.39;50.77;99397.81;10000172;23;20109;-76
2022/08/05 13:26:51;;;;;;;1999.90;999.90;;;;;;;27.56;49.94;99400.09;10021057;23;20046;-76
2022/08/05 13:30:52;;;;;;;1999.90;999.90;;;;;;;27.55;50.57;99392.22;10020485;23;20752;-75
2022/08/05 13:34:54;;;;;;;1999.90;999.90;;;;;;;27.49;49.51;99382.84;9998062;23;20019;-76
2022/08/05 13:38:55;;;;;;;;;;;;;;;27.55;49.42;99393.06;10024351;23;20382;-76
2022/08/05 13:42:57;;;;;;;1999.90;999.90;;;;;;;27.43;50.81;99396.63;10023887;23;19926;-75
2022/08/05 13:46:58;;;;;;;1999.90;999.90;;;;;;;27.39;50.92;99400.47;10019383;23;20063;-75
2022/08/05 13:51:12;;;;;;;1999.90;999.90;;;;;;;27.51;52.08;99396.94;10016732;23;20399;-75
2022/08/05 13:55:14;;;;;;;1999.90;999.90;;;;;;;27.46;51.81;99399.06;10024535;23;20704;-75
2022/08/05 13:59:37;;;;;;;1999.90;999.90;;;;;;;27.32;52.29;99400.09;10023774;23;20023;-75
2022/08/05 14:08:19;;;;;;;1999.90;999.90;;;;;;;26.94;53.83;99405.50;10027314;23;20097;-75
2022/08/05 14:12:32;;;;;;;1999.90;999.90;;;;;;;26.97;54.15;99401.78;10001046;23;20023;-75
2022/08/05 14:16:34;;;;;;;;;;;;;;;27.03;54.15;99407.53;10028501;23;20061;-75
2022/08/05 14:20:35;;;;;;;1999.90;999.90;;;;;;;26.90;53.22;99403.16;10003380;23;19921;-75
2022/08/05 14:24:38;;;;;;;1999.90;999.90;;;;;;;26.90;53.92;99413.81;10028615;23;20062;-75
2022/08/05 14:28:40;;;;;;;1999.90;999.90;;;;;;;26.78;54.72;99410.22;10026636;23;20015;-75
2022/08/05 14:32:52;;;;;;;1999.90;999.90;;;;;;;26.69;55.50;99414.38;10022975;23;20050;-75
2022/08/05 14:36:54;;;;;;;;;;;;;;;26.47;55.68;99408.84;10002778;23;20023;-75
2022/08/05 14:40:56;;;;;;;1999.90;999.90;;;;;;;26.27;56.53;99404.88;10027972;23;19960;-75
2022/08/05 14:44:57;;;;;;;1999.90;999.90;;;;;;;26.15;56.86;99400.38;10002639;23;20070;-75
2022/08/05 14:49:02;;;;;;;1999.90;999.90;;;;;;;26.01;56.86;99403.97;10022962;23;20030;-75
2022/08/05 14:53:08;;;;;;;1999.90;999.90;;;;;;;26.00;57.03;99396.09;10027881;23;20125;-75
2022/08/05 14:57:09;;;;;;;;;;;;;;;25.92;56.76;99407.28;10028006;23;20022;-75
2022/08/05 15:01:14;;;;;;;1999.90;999.90;;;;;;;26.02;57.46;99395.03;10022078;23;19922;-74
2022/08/05 15:05:23;;;;;;;1999.90;999.90;;;;;;;26.00;57.37;99399.59;10041369;23;20098;-75
2022/08/05 15:09:44;;;;;;;;;;;;;;;25.87;56.37;99394.28;10000387;23;20027;-75
2022/08/05 15:13:54;;;;;;;1999.90;999.90;;;;;;;25.96;57.54;99391.94;10023321;23;19921;-74
2022/08/05 15:17:59;;;;;;;1999.90;999.90;;;;;;;26.06;57.07;99398.38;10042171;23;20022;-75
2022/08/05 15:22:07;;;;;;;1999.90;999.90;;;;;;;26.16;56.01;99391.44;10024610;23;20022;-75
2022/08/05 15:26:09;;;;;;;1999.90;999.90;;;;;;;26.18;56.48;99395.69;9999735;23;20696;-75
2022/08/05 15:30:11;;;;;;;1999.90;999.90;;;;;;;26.23;56.47;99392.75;9995479;23;20029;-75
2022/08/05 15:34:16;;;;;;;1999.90;999.90;;;;;;;26.16;56.28;99407.41;10022810;23;20593;-75
2022/08/05 15:38:33;;;;;;;1999.90;999.90;;;;;;;26.00;54.91;99412.91;10002262;23;20019;-75
2022/08/05 15:42:42;;;;;;;1999.90;999.90;;;;;;;25.91;56.25;99416.22;9998522;23;20033;-75
2022/08/05 15:46:59;;;;;;;1999.90;999.90;;;;;;;25.77;55.26;99422.44;10019617;23;20034;-75
2022/08/05 15:51:02;;;;;;;1999.90;999.90;;;;;;;25.58;54.76;99427.25;10024105;23;20030;-75
2022/08/05 15:55:09;;;;;;;1999.90;999.90;;;;;;;25.43;54.96;99423.78;10026086;23;20043;-75
2022/08/05 15:59:16;;;;;;;1999.90;999.90;;;;;;;25.32;55.15;99428.94;10026618;23;20029;-75
2022/08/05 16:03:22;;;;;;;1999.90;999.90;;;;;;;25.16;54.36;99436.19;10021711;23;20040;-75
2022/08/05 16:07:24;;;;;;;1999.90;999.90;;;;;;;25.02;53.77;99434.41;10015799;23;20126;-74
2022/08/05 16:11:30;;;;;;;1999.90;999.90;;;;;;;24.93;52.76;99435.78;10000764;23;20026;-75
2022/08/05 16:15:41;;;;;;;1999.90;999.90;;;;;;;24.85;52.72;99443.38;10001966;23;20427;-74
2022/08/05 16:19:44;;;;;;;1999.90;999.90;;;;;;;24.83;53.03;99452.41;9999295;23;20019;-74
2022/08/05 16:24:05;;;;;;;1999.90;999.90;;;;;;;24.81;51.89;99449.84;9998396;23;20037;-75
2022/08/05 16:28:27;;;;;;;;;;;;;;;24.85;51.78;99451.34;9997034;23;20092;-75
2022/08/05 16:32:28;;;;;;;1999.90;999.90;;;;;;;24.89;52.00;99457.34;10018435;23;19921;-74
2022/08/05 16:36:30;;;;;;;1999.90;999.90;;;;;;;24.93;50.08;99461.50;10037937;23;20069;-75
2022/08/05 16:40:31;;;;;;;1999.90;999.90;;;;;;;25.08;50.51;99462.38;10026365;23;20047;-74
2022/08/05 16:44:33;;;;;;;;;;;;;;;25.12;51.30;99463.88;9979071;23;20030;-75
2022/08/05 16:48:38;;;;;;;1999.90;999.90;;;;;;;25.10;50.84;99460.47;10020918;23;19926;-75
2022/08/05 16:52:39;;;;;;;;;;;;;;;24.99;49.92;99472.66;10001549;23;20687;-75
2022/08/05 16:56:46;;;;;;;1999.90;999.90;;;;;;;24.85;48.97;99472.59;10001826;23;19960;-75
2022/08/05 17:00:52;;;;;;;1999.90;999.90;;;;;;;24.76;50.00;99481.13;9997459;23;20035;-75
2022/08/05 17:04:55;;;;;;;1999.90;999.90;;;;;;;24.69;50.22;99477.16;10024392;23;20078;-75
2022/08/05 17:08:56;;;;;;;1999.90;999.90;;;;;;;24.68;52.04;99478.09;9999656;23;20654;-75
2022/08/05 17:12:59;;;;;;;1999.90;999.90;;;;;;;24.70;51.34;99478.84;10026248;23;20044;-74
2022/08/05 17:17:02;;;;;;;1999.90;999.90;;;;;;;24.73;50.67;99477.81;10019933;23;20027;-75
2022/08/05 17:21:05;;;;;;;1999.90;999.90;;;;;;;24.75;50.80;99479.41;10022612;23;20023;-75
2022/08/05 17:25:06;;;;;;;;;;;;;;;24.71;50.08;99477.91;10000492;23;20097;-75
2022/08/05 17:29:23;;;;;;;1999.90;999.90;;;;;;;24.67;47.68;99482.56;10023022;23;20580;-75
2022/08/05 17:33:40;;;;;;;1999.90;999.90;;;;;;;24.63;47.28;99482.84;10016070;23;20066;-75
2022/08/05 17:37:51;;;;;;;1999.90;999.90;;;;;;;24.55;47.41;99488.59;10023954;23;20061;-74
2022/08/05 17:42:01;;;;;;;1999.90;999.90;;;;;;;24.44;47.00;99490.22;10023356;23;20414;-74
2022/08/05 17:46:22;;;;;;;1999.90;999.90;;;;;;;24.33;46.69;99493.50;10018048;23;20035;-75
2022/08/05 17:50:26;;;;;;;1999.90;999.90;;;;;;;24.22;47.68;99491.44;9997885;23;20074;-75
2022/08/05 17:54:32;;;;;;;1999.90;999.90;;;;;;;24.09;46.53;99493.09;9997655;23;20031;-75
2022/08/05 17:58:36;;;;;;;1999.90;999.90;;;;;;;24.03;47.92;99491.66;10014397;23;20064;-75
2022/08/05 18:02:38;;;;;;;1999.90;999.90;;;;;;;23.97;47.40;99493.81;10025035;23;20026;-74
2022/08/05 18:06:39;;;;;;;1999.90;999.90;;;;;;;23.89;47.27;99504.88;10023059;23;20404;-74
2022/08/05 18:10:46;;;;;;;1999.90;999.90;;;;;;;23.77;48.96;99509.06;10025139;23;20086;-75
2022/08/05 18:14:50;;;;;;;1999.90;999.90;;;;;;;23.71;49.93;99522.69;9998388;23;20031;-74
2022/08/05 18:18:52;;;;;;;1999.90;999.90;;;;;;;23.65;51.14;99530.97;9995018;23;20026;-74
2022/08/05 18:22:54;;;;;;;1999.90;999.90;;;;;;;23.61;51.35;99533.88;10023764;23;20061;-74
2022/08/05 18:26:58;;;;;;;1999.90;999.90;;;;;;;23.55;51.58;99537.69;9976023;23;20113;-75
2022/08/05 18:31:00;;;;;;;1999.90;999.90;;;;;;;23.46;52.12;99548.78;9995366;23;20031;-75